createdAt,value
2023-01-31T00:00:50.941Z,21.91
2023-01-31T00:03:20.423Z,21.89
2023-01-31T00:05:49.495Z,21.89
2023-01-31T00:08:18.540Z,21.89
2023-01-31T00:10:47.636Z,21.90
2023-01-31T00:13:16.384Z,21.90
2023-01-31T00:15:45.289Z,21.89
2023-01-31T00:18:13.142Z,21.90
2023-01-31T00:20:43.683Z,21.89
2023-01-31T00:23:12.747Z,21.89
2023-01-31T00:25:44.215Z,21.88
2023-01-31T00:28:11.916Z,21.89
2023-01-31T00:30:40.973Z,21.88
2023-01-31T00:33:08.796Z,21.88
2023-01-31T00:35:39.581Z,21.88
2023-01-31T00:38:09.940Z,21.86
2023-01-31T00:40:38.939Z,21.86
2023-01-31T00:43:07.985Z,21.86
2023-01-31T00:45:41.390Z,21.85
2023-01-31T00:48:10.634Z,21.85
2023-01-31T00:50:39.483Z,21.85
2023-01-31T00:53:08.422Z,21.85
2023-01-31T00:55:38.779Z,21.83
2023-01-31T00:58:07.796Z,21.83
2023-01-31T01:00:36.605Z,21.83
2023-01-31T01:03:06.330Z,21.83
2023-01-31T01:05:35.957Z,21.83
2023-01-31T01:08:04.947Z,21.82
2023-01-31T01:10:34.173Z,21.82
2023-01-31T01:13:05.620Z,21.82
2023-01-31T01:15:37.855Z,21.82
2023-01-31T01:18:06.640Z,21.82
2023-01-31T01:20:35.821Z,21.82
2023-01-31T01:23:04.821Z,21.82
2023-01-31T01:25:37.832Z,21.82
2023-01-31T01:28:08.153Z,21.82
2023-01-31T01:30:38.615Z,21.82
2023-01-31T01:33:07.704Z,21.83
2023-01-31T01:35:36.542Z,21.82
2023-01-31T01:38:05.391Z,21.83
2023-01-31T01:40:37.306Z,21.81
2023-01-31T01:43:06.356Z,21.82
2023-01-31T01:45:37.078Z,21.82
2023-01-31T01:48:08.814Z,21.81
2023-01-31T01:50:37.970Z,21.81
2023-01-31T01:53:11.067Z,21.82
2023-01-31T01:55:42.022Z,21.81
2023-01-31T01:58:11.943Z,21.80
2023-01-31T02:00:41.437Z,21.79
2023-01-31T02:03:09.305Z,21.79
2023-01-31T02:05:39.526Z,21.80
2023-01-31T02:08:08.434Z,21.79
2023-01-31T02:10:38.768Z,21.81
2023-01-31T02:13:10.101Z,21.80
2023-01-31T02:15:37.744Z,21.80
2023-01-31T02:18:08.235Z,21.80
2023-01-31T02:20:53.575Z,21.79
2023-01-31T02:23:28.791Z,21.80
2023-01-31T02:26:11.196Z,21.79
2023-01-31T02:28:44.047Z,21.80
2023-01-31T02:31:29.964Z,21.80
2023-01-31T02:34:03.714Z,21.80
2023-01-31T02:36:34.544Z,21.81
2023-01-31T02:39:04.595Z,21.80
2023-01-31T02:41:35.033Z,21.81
2023-01-31T02:44:24.835Z,21.81
2023-01-31T02:46:54.694Z,21.81
2023-01-31T02:49:35.748Z,21.82
2023-01-31T02:52:17.270Z,21.81
2023-01-31T02:55:06.138Z,21.82
2023-01-31T02:57:35.222Z,21.81
2023-01-31T03:00:07.012Z,21.81
2023-01-31T03:02:35.174Z,21.81
2023-01-31T03:05:04.347Z,21.80
2023-01-31T03:07:33.837Z,21.81
2023-01-31T03:10:04.540Z,21.81
2023-01-31T03:12:36.587Z,21.81
2023-01-31T03:15:29.151Z,21.81
2023-01-31T03:17:58.391Z,21.81
2023-01-31T03:20:29.797Z,21.81
2023-01-31T03:22:59.354Z,21.81
2023-01-31T03:25:28.379Z,21.80
2023-01-31T03:27:57.472Z,21.81
2023-01-31T03:30:27.556Z,21.82
2023-01-31T03:32:57.252Z,21.81
2023-01-31T03:35:26.999Z,21.81
2023-01-31T03:37:56.978Z,21.81
2023-01-31T03:40:26.943Z,21.80
2023-01-31T03:42:55.927Z,21.82
2023-01-31T03:45:24.779Z,21.83
2023-01-31T03:47:53.850Z,21.82
2023-01-31T03:50:24.477Z,21.83
2023-01-31T03:52:53.848Z,21.84
2023-01-31T03:55:25.713Z,21.83
2023-01-31T03:57:55.566Z,21.83
2023-01-31T04:00:37.243Z,21.83
2023-01-31T04:03:08.129Z,21.83
2023-01-31T04:05:37.133Z,21.84
2023-01-31T04:08:06.299Z,21.83
2023-01-31T04:10:36.889Z,21.83
2023-01-31T04:13:04.526Z,21.84
2023-01-31T04:15:35.588Z,21.83
2023-01-31T04:18:06.015Z,21.83
2023-01-31T04:20:34.981Z,21.84
2023-01-31T04:23:05.353Z,21.83
2023-01-31T04:25:34.315Z,21.84
2023-01-31T04:28:07.998Z,21.83
2023-01-31T04:30:36.916Z,21.83
2023-01-31T04:33:05.725Z,21.83
2023-01-31T04:35:35.116Z,21.83
2023-01-31T04:38:04.542Z,21.82
2023-01-31T04:40:35.780Z,21.82
2023-01-31T04:43:06.186Z,21.83
2023-01-31T04:45:35.053Z,21.83
2023-01-31T04:48:06.292Z,21.83
2023-01-31T04:50:35.287Z,21.85
2023-01-31T04:53:08.668Z,21.84
2023-01-31T04:55:39.995Z,21.83
2023-01-31T04:58:10.424Z,21.84
2023-01-31T05:00:38.324Z,21.84
2023-01-31T05:03:07.447Z,21.83
2023-01-31T05:05:37.182Z,21.85
2023-01-31T05:08:06.647Z,21.84
2023-01-31T05:10:36.304Z,21.84
2023-01-31T05:13:05.231Z,21.84
2023-01-31T05:15:35.457Z,21.84
2023-01-31T05:18:08.211Z,21.83
2023-01-31T05:20:38.432Z,21.84
2023-01-31T05:23:06.172Z,21.83
2023-01-31T05:25:33.891Z,21.84
2023-01-31T05:28:01.633Z,21.83
2023-01-31T05:30:29.665Z,21.84
2023-01-31T05:32:58.907Z,21.83
2023-01-31T05:35:26.645Z,21.78
2023-01-31T05:37:54.504Z,21.83
2023-01-31T05:40:22.193Z,21.83
2023-01-31T05:42:51.652Z,21.84
2023-01-31T05:45:19.704Z,21.83
2023-01-31T05:47:47.583Z,21.83
2023-01-31T05:50:16.717Z,21.83
2023-01-31T05:52:44.867Z,21.83
2023-01-31T05:55:12.545Z,21.82
2023-01-31T05:57:40.250Z,21.82
2023-01-31T06:00:09.318Z,21.83
2023-01-31T06:02:36.964Z,21.82
2023-01-31T06:05:04.823Z,21.83
2023-01-31T06:07:33.810Z,21.83
2023-01-31T06:10:02.370Z,21.83
2023-01-31T06:12:30.920Z,21.83
2023-01-31T06:14:58.639Z,21.82
2023-01-31T06:17:27.671Z,21.83
2023-01-31T06:19:57.098Z,21.83
2023-01-31T06:22:24.804Z,21.82
2023-01-31T06:24:53.879Z,21.83
2023-01-31T06:27:21.635Z,21.83
2023-01-31T06:29:49.270Z,21.83
2023-01-31T06:32:17.005Z,21.83
2023-01-31T06:34:44.783Z,21.82
2023-01-31T06:37:12.489Z,21.83
2023-01-31T06:39:40.218Z,21.83
2023-01-31T06:42:09.395Z,21.83
2023-01-31T06:44:37.927Z,21.83
2023-01-31T06:47:05.714Z,21.83
2023-01-31T06:49:33.444Z,21.84
2023-01-31T06:52:01.071Z,21.84
2023-01-31T06:54:28.823Z,21.84
2023-01-31T06:56:56.527Z,21.86
2023-01-31T06:59:25.611Z,21.86
2023-01-31T07:01:53.647Z,21.85
2023-01-31T07:04:21.403Z,21.86
2023-01-31T07:06:50.424Z,21.85
2023-01-31T07:09:21.824Z,21.86
2023-01-31T07:11:50.942Z,21.87
2023-01-31T07:14:20.165Z,21.88
2023-01-31T07:16:50.309Z,21.88
2023-01-31T07:19:19.309Z,21.87
2023-01-31T07:21:49.243Z,21.87
2023-01-31T07:24:17.955Z,21.88
2023-01-31T07:26:47.059Z,21.88
2023-01-31T07:29:15.910Z,21.88
2023-01-31T07:31:44.916Z,21.88
2023-01-31T07:34:15.397Z,21.88
2023-01-31T07:36:44.396Z,21.88
2023-01-31T07:39:13.490Z,21.88
2023-01-31T07:41:42.168Z,21.89
2023-01-31T07:44:13.856Z,21.89
2023-01-31T07:46:42.677Z,21.89
2023-01-31T07:49:10.647Z,21.90
2023-01-31T07:51:41.290Z,21.90
2023-01-31T07:54:10.513Z,21.91
2023-01-31T07:56:46.602Z,21.91
2023-01-31T07:59:14.795Z,21.92
2023-01-31T08:01:59.909Z,21.92
2023-01-31T08:04:27.602Z,21.94
2023-01-31T08:06:56.625Z,21.95
2023-01-31T08:09:25.065Z,21.96
2023-01-31T08:11:52.803Z,21.97
2023-01-31T08:14:25.284Z,21.98
2023-01-31T08:16:53.125Z,21.97
2023-01-31T08:19:20.952Z,21.98
2023-01-31T08:21:48.713Z,21.98
2023-01-31T08:24:17.766Z,21.98
2023-01-31T08:26:45.907Z,22.00
2023-01-31T08:29:13.554Z,21.98
2023-01-31T08:31:41.988Z,21.99
2023-01-31T08:34:09.702Z,21.99
2023-01-31T08:36:37.903Z,22.00
2023-01-31T08:39:05.998Z,22.00
2023-01-31T08:41:35.252Z,22.01
2023-01-31T08:44:04.971Z,22.01
2023-01-31T08:46:33.700Z,22.01
2023-01-31T08:49:01.640Z,22.02
2023-01-31T08:51:30.337Z,22.01
2023-01-31T08:53:58.223Z,22.03
2023-01-31T08:56:28.897Z,22.02
2023-01-31T08:58:58.270Z,22.04
2023-01-31T09:01:26.818Z,22.04
2023-01-31T09:03:57.225Z,22.05
2023-01-31T09:06:27.807Z,22.06
2023-01-31T09:08:56.427Z,22.08
2023-01-31T09:11:24.258Z,22.06
2023-01-31T09:13:52.455Z,22.07
2023-01-31T09:16:22.262Z,22.07
2023-01-31T09:18:50.416Z,22.08
2023-01-31T09:21:18.530Z,22.07
2023-01-31T09:23:46.481Z,22.07
2023-01-31T09:26:15.705Z,22.06
2023-01-31T09:28:43.711Z,22.05
2023-01-31T09:31:13.056Z,22.06
2023-01-31T09:33:42.468Z,22.05
2023-01-31T09:36:10.851Z,22.05
2023-01-31T09:38:39.269Z,22.06
2023-01-31T09:41:07.738Z,22.06
2023-01-31T09:43:36.824Z,22.07
2023-01-31T09:46:04.700Z,22.12
2023-01-31T09:48:35.488Z,22.16
2023-01-31T09:51:05.586Z,22.15
2023-01-31T09:53:34.128Z,22.13
2023-01-31T09:56:06.801Z,22.12
2023-01-31T09:58:35.559Z,22.11
2023-01-31T10:01:06.708Z,22.10
2023-01-31T10:03:40.679Z,22.11
2023-01-31T10:06:12.887Z,22.12
2023-01-31T10:08:42.385Z,22.13
2023-01-31T10:11:13.847Z,22.13
2023-01-31T10:13:43.133Z,22.14
2023-01-31T10:16:15.411Z,22.14
2023-01-31T10:18:43.659Z,22.15
2023-01-31T10:21:14.114Z,22.13
2023-01-31T10:23:43.431Z,22.11
2023-01-31T10:26:13.813Z,22.10
2023-01-31T10:28:44.886Z,22.10
2023-01-31T10:31:13.561Z,22.10
2023-01-31T10:33:43.598Z,22.10
2023-01-31T10:36:15.701Z,22.09
2023-01-31T10:38:46.535Z,22.08
2023-01-31T10:41:16.200Z,22.07
2023-01-31T10:43:45.909Z,22.07
2023-01-31T10:46:14.118Z,22.08
2023-01-31T10:48:43.947Z,22.08
2023-01-31T10:51:18.614Z,22.08
2023-01-31T10:53:51.553Z,22.06
2023-01-31T10:56:20.160Z,22.08
2023-01-31T10:58:48.193Z,22.08
2023-01-31T11:01:16.829Z,22.09
2023-01-31T11:03:53.198Z,22.07
2023-01-31T11:06:22.421Z,22.07
2023-01-31T11:08:50.924Z,22.08
2023-01-31T11:11:19.756Z,22.09
2023-01-31T11:13:56.675Z,22.08
2023-01-31T11:16:25.282Z,22.09
2023-01-31T11:18:53.204Z,22.07
2023-01-31T11:21:24.010Z,22.05
2023-01-31T11:23:52.608Z,22.06
2023-01-31T11:26:27.381Z,22.04
2023-01-31T11:28:56.040Z,22.04
2023-01-31T11:31:26.744Z,22.03
2023-01-31T11:33:58.007Z,22.03
2023-01-31T11:36:27.261Z,22.02
2023-01-31T11:38:55.104Z,22.02
2023-01-31T11:41:30.781Z,22.00
2023-01-31T11:44:14.981Z,22.01
2023-01-31T11:46:48.197Z,22.00
2023-01-31T11:49:18.262Z,21.98
2023-01-31T11:51:48.221Z,21.99
2023-01-31T11:54:18.336Z,21.98
2023-01-31T11:56:47.352Z,21.98
2023-01-31T11:59:17.129Z,21.97
2023-01-31T12:01:46.416Z,21.97
2023-01-31T12:04:17.122Z,21.99
2023-01-31T12:06:45.110Z,21.99
2023-01-31T12:09:22.892Z,21.99
2023-01-31T12:11:51.464Z,21.99
2023-01-31T12:14:19.604Z,21.99
2023-01-31T12:16:48.681Z,21.99
2023-01-31T12:19:21.437Z,21.97
2023-01-31T12:21:51.934Z,21.97
2023-01-31T12:24:24.020Z,21.95
2023-01-31T12:26:54.303Z,21.94
2023-01-31T12:29:29.581Z,21.94
2023-01-31T12:32:03.018Z,21.93
2023-01-31T12:34:34.854Z,21.93
2023-01-31T12:37:24.375Z,21.94
2023-01-31T12:39:57.310Z,21.95
2023-01-31T12:42:30.789Z,21.94
2023-01-31T12:45:01.367Z,21.93
2023-01-31T12:47:37.852Z,21.86
2023-01-31T12:50:14.400Z,21.83
2023-01-31T12:52:46.983Z,21.81
2023-01-31T12:55:19.807Z,21.79
2023-01-31T12:57:50.079Z,21.80
2023-01-31T13:00:23.278Z,21.80
2023-01-31T13:02:58.505Z,21.83
2023-01-31T13:05:28.551Z,21.83
2023-01-31T13:07:57.365Z,21.84
2023-01-31T13:10:30.716Z,21.85
2023-01-31T13:12:58.538Z,21.87
2023-01-31T13:15:28.981Z,21.88
2023-01-31T13:18:00.379Z,21.87
2023-01-31T13:20:29.745Z,21.88
2023-01-31T13:22:58.078Z,21.86
2023-01-31T13:25:36.881Z,21.86
2023-01-31T13:28:06.724Z,21.86
2023-01-31T13:30:36.671Z,21.87
2023-01-31T13:33:04.941Z,21.89
2023-01-31T13:35:34.955Z,21.90
2023-01-31T13:38:03.882Z,21.90
2023-01-31T13:40:32.816Z,21.92
2023-01-31T13:43:04.154Z,21.90
2023-01-31T13:45:34.628Z,21.91
2023-01-31T13:48:04.253Z,21.92
2023-01-31T13:50:34.411Z,21.92
2023-01-31T13:53:03.151Z,21.92
2023-01-31T13:55:33.652Z,21.93
2023-01-31T13:58:04.593Z,21.93
2023-01-31T14:00:39.904Z,21.95
2023-01-31T14:03:08.934Z,21.94
2023-01-31T14:05:53.696Z,21.95
2023-01-31T14:08:38.010Z,21.95
2023-01-31T14:11:10.673Z,21.97
2023-01-31T14:13:39.518Z,21.97
2023-01-31T14:16:26.565Z,21.97
2023-01-31T14:18:55.926Z,21.98
2023-01-31T14:21:51.550Z,21.99
2023-01-31T14:24:20.302Z,22.00
2023-01-31T14:26:54.925Z,21.98
2023-01-31T14:29:22.982Z,22.00
2023-01-31T14:31:51.294Z,21.99
2023-01-31T14:34:21.947Z,22.00
2023-01-31T14:36:56.878Z,21.98
2023-01-31T14:39:29.773Z,21.98
2023-01-31T14:42:18.052Z,21.98
2023-01-31T14:44:50.409Z,21.98
2023-01-31T14:47:25.848Z,21.99
2023-01-31T14:50:01.011Z,22.03
2023-01-31T14:52:36.163Z,22.04
2023-01-31T14:55:14.806Z,22.05
2023-01-31T14:57:42.796Z,22.04
2023-01-31T15:00:19.044Z,22.04
2023-01-31T15:02:49.056Z,22.04
2023-01-31T15:05:20.565Z,22.04
2023-01-31T15:08:05.386Z,22.04
2023-01-31T15:10:54.590Z,22.03
2023-01-31T15:13:38.664Z,22.03
2023-01-31T15:16:09.182Z,22.03
2023-01-31T15:18:37.031Z,22.03
2023-01-31T15:21:06.778Z,22.03
2023-01-31T15:23:35.685Z,22.02
2023-01-31T15:26:03.574Z,22.03
2023-01-31T15:28:33.013Z,22.03
2023-01-31T15:31:01.635Z,22.03
2023-01-31T15:33:31.305Z,22.04
2023-01-31T15:36:01.063Z,22.05
2023-01-31T15:38:31.106Z,22.06
2023-01-31T15:41:09.437Z,22.05
2023-01-31T15:43:39.637Z,22.06
2023-01-31T15:46:15.268Z,22.05
2023-01-31T15:48:43.657Z,22.05
2023-01-31T15:51:12.847Z,22.05
2023-01-31T15:53:42.839Z,22.04
2023-01-31T15:56:14.954Z,22.04
2023-01-31T15:58:43.919Z,22.03
2023-01-31T16:01:15.492Z,22.02
2023-01-31T16:03:46.074Z,22.01
2023-01-31T16:06:20.150Z,22.00
2023-01-31T16:08:52.360Z,21.99
2023-01-31T16:11:20.193Z,21.98
2023-01-31T16:13:48.124Z,21.98
2023-01-31T16:16:16.779Z,21.98
2023-01-31T16:18:45.097Z,21.96
2023-01-31T16:21:13.586Z,21.95
2023-01-31T16:23:42.290Z,21.95
2023-01-31T16:26:12.075Z,21.93
2023-01-31T16:28:41.479Z,21.93
2023-01-31T16:31:09.895Z,21.92
2023-01-31T16:33:37.801Z,21.91
2023-01-31T16:36:14.416Z,21.92
2023-01-31T16:38:44.379Z,21.91
2023-01-31T16:41:16.166Z,21.91
2023-01-31T16:43:44.069Z,21.90
2023-01-31T16:46:20.822Z,21.90
2023-01-31T16:49:01.784Z,21.89
2023-01-31T16:51:43.032Z,21.89
2023-01-31T16:54:30.763Z,21.89
2023-01-31T16:57:13.433Z,21.89
2023-01-31T16:59:42.179Z,21.87
2023-01-31T17:02:16.256Z,21.87
2023-01-31T17:04:45.691Z,21.86
2023-01-31T17:07:18.584Z,21.85
2023-01-31T17:09:46.743Z,21.85
2023-01-31T17:12:23.889Z,21.84
2023-01-31T17:14:57.072Z,21.85
2023-01-31T17:17:26.671Z,21.83
2023-01-31T17:19:54.498Z,21.83
2023-01-31T17:22:23.133Z,21.82
2023-01-31T17:24:51.924Z,21.82
2023-01-31T17:27:20.146Z,21.81
2023-01-31T17:29:49.384Z,21.81
2023-01-31T17:32:18.443Z,21.81
2023-01-31T17:34:46.367Z,21.83
2023-01-31T17:37:16.097Z,21.82
2023-01-31T17:39:48.302Z,21.83
2023-01-31T17:42:17.832Z,21.83
2023-01-31T17:44:46.599Z,21.83
2023-01-31T17:47:15.917Z,21.83
2023-01-31T17:49:45.174Z,21.84
2023-01-31T17:52:14.050Z,21.85
2023-01-31T17:54:41.856Z,21.86
2023-01-31T17:57:11.304Z,21.85
2023-01-31T17:59:39.111Z,21.87
2023-01-31T18:02:07.679Z,21.85
2023-01-31T18:04:38.187Z,21.84
2023-01-31T18:07:05.863Z,21.85
2023-01-31T18:09:33.542Z,21.86
2023-01-31T18:12:02.105Z,21.87
2023-01-31T18:14:29.859Z,21.87
2023-01-31T18:16:59.651Z,21.86
2023-01-31T18:19:28.391Z,21.87
2023-01-31T18:22:03.429Z,21.87
2023-01-31T18:24:31.550Z,21.87
2023-01-31T18:26:59.272Z,21.88
2023-01-31T18:29:28.255Z,21.87
2023-01-31T18:32:02.331Z,21.87
2023-01-31T18:34:32.280Z,21.86
2023-01-31T18:37:01.370Z,21.87
2023-01-31T18:39:31.386Z,21.86
2023-01-31T18:41:59.082Z,21.87
2023-01-31T18:44:28.682Z,21.86
2023-01-31T18:46:56.415Z,21.87
2023-01-31T18:49:25.034Z,21.87
2023-01-31T18:51:52.750Z,21.86
2023-01-31T18:54:22.228Z,21.87
2023-01-31T18:56:56.563Z,21.87
2023-01-31T18:59:24.250Z,21.86
2023-01-31T19:02:00.014Z,21.87
2023-01-31T19:04:28.597Z,21.88
2023-01-31T19:06:56.297Z,21.88
2023-01-31T19:09:26.435Z,21.89
2023-01-31T19:11:54.103Z,21.90
2023-01-31T19:14:21.746Z,21.90
2023-01-31T19:16:50.428Z,21.89
2023-01-31T19:19:18.127Z,21.89
2023-01-31T19:21:47.305Z,21.90
2023-01-31T19:24:15.475Z,21.90
2023-01-31T19:26:49.373Z,21.89
2023-01-31T19:29:17.152Z,21.89
2023-01-31T19:31:46.437Z,21.89
2023-01-31T19:34:14.248Z,21.89
2023-01-31T19:36:48.419Z,21.89
2023-01-31T19:39:16.190Z,21.89
2023-01-31T19:41:45.359Z,21.88
2023-01-31T19:44:14.018Z,21.89
2023-01-31T19:46:46.192Z,21.89
2023-01-31T19:49:16.920Z,21.89
2023-01-31T19:51:44.599Z,21.89
2023-01-31T19:54:16.431Z,21.89
2023-01-31T19:56:45.581Z,21.88
2023-01-31T19:59:19.670Z,21.89
2023-01-31T20:01:48.890Z,21.89
2023-01-31T20:04:16.672Z,21.89
2023-01-31T20:06:46.466Z,21.91
2023-01-31T20:09:26.625Z,21.91
2023-01-31T20:11:55.785Z,21.95
2023-01-31T20:14:23.502Z,22.01
2023-01-31T20:16:52.284Z,22.04
2023-01-31T20:19:22.454Z,22.04
2023-01-31T20:21:51.402Z,22.03
2023-01-31T20:24:19.247Z,22.03
2023-01-31T20:26:47.886Z,22.01
2023-01-31T20:29:17.084Z,22.01
2023-01-31T20:31:46.519Z,22.00
2023-01-31T20:34:14.289Z,22.00
2023-01-31T20:36:48.597Z,22.00
2023-01-31T20:39:16.279Z,22.00
2023-01-31T20:41:46.806Z,21.99
2023-01-31T20:44:16.364Z,21.99
2023-01-31T20:46:45.433Z,21.99
2023-01-31T20:49:14.113Z,21.99
2023-01-31T20:51:41.813Z,21.99
2023-01-31T20:54:09.560Z,21.99
2023-01-31T20:56:39.506Z,22.00
2023-01-31T20:59:07.355Z,21.99
2023-01-31T21:01:36.945Z,21.98
2023-01-31T21:04:08.012Z,21.99
2023-01-31T21:06:36.582Z,21.97
2023-01-31T21:09:04.452Z,21.98
2023-01-31T21:11:32.143Z,21.99
2023-01-31T21:14:01.443Z,22.00
2023-01-31T21:16:29.114Z,21.99
2023-01-31T21:18:58.410Z,22.00
2023-01-31T21:21:27.578Z,21.99
2023-01-31T21:23:58.454Z,21.99
2023-01-31T21:26:27.396Z,21.99
2023-01-31T21:28:55.975Z,21.99
2023-01-31T21:31:27.856Z,21.99
2023-01-31T21:33:58.556Z,21.98
2023-01-31T21:36:27.654Z,21.97
2023-01-31T21:38:55.353Z,21.97
2023-01-31T21:41:41.484Z,21.96
2023-01-31T21:44:09.214Z,21.95
2023-01-31T21:46:36.952Z,21.94
2023-01-31T21:49:05.492Z,21.93
2023-01-31T21:51:34.551Z,21.93
2023-01-31T21:54:02.189Z,21.93
2023-01-31T21:56:33.551Z,21.93
2023-01-31T21:59:01.244Z,21.92
2023-01-31T22:01:30.661Z,21.92
2023-01-31T22:04:04.440Z,21.90
2023-01-31T22:06:37.488Z,21.90
2023-01-31T22:09:05.290Z,21.90
2023-01-31T22:11:33.367Z,21.89
2023-01-31T22:14:02.511Z,21.89
2023-01-31T22:16:30.534Z,21.88
2023-01-31T22:19:00.119Z,21.88
2023-01-31T22:21:28.139Z,21.88
2023-01-31T22:23:57.684Z,21.89
2023-01-31T22:26:32.708Z,21.88
2023-01-31T22:29:00.805Z,21.89
2023-01-31T22:31:28.744Z,21.88
2023-01-31T22:33:57.897Z,21.88
2023-01-31T22:36:25.696Z,21.87
2023-01-31T22:38:54.184Z,21.87
2023-01-31T22:41:23.413Z,21.86
2023-01-31T22:43:52.367Z,21.85
2023-01-31T22:46:20.612Z,21.85
2023-01-31T22:48:49.500Z,21.84
2023-01-31T22:51:18.515Z,21.83
2023-01-31T22:53:46.210Z,21.82
2023-01-31T22:56:14.539Z,21.81
2023-01-31T22:58:44.884Z,21.81
2023-01-31T23:01:15.564Z,21.80
2023-01-31T23:03:43.913Z,21.78
2023-01-31T23:06:11.902Z,21.77
2023-01-31T23:08:40.332Z,21.77
2023-01-31T23:11:10.289Z,21.76
2023-01-31T23:13:43.428Z,21.76
2023-01-31T23:16:20.816Z,21.75
2023-01-31T23:18:52.365Z,21.72
2023-01-31T23:21:23.034Z,21.71
2023-01-31T23:23:53.186Z,21.72
2023-01-31T23:26:22.334Z,21.72
2023-01-31T23:28:54.253Z,21.71
2023-01-31T23:31:26.478Z,21.71
2023-01-31T23:33:55.936Z,21.71
2023-01-31T23:36:26.137Z,21.70
2023-01-31T23:38:55.024Z,21.70
2023-01-31T23:41:23.901Z,21.69
2023-01-31T23:43:53.078Z,21.69
2023-01-31T23:46:23.870Z,21.68
2023-01-31T23:48:52.777Z,21.69
2023-01-31T23:51:20.456Z,21.68
2023-01-31T23:53:49.135Z,21.68
2023-01-31T23:56:16.816Z,21.68
2023-01-31T23:58:45.618Z,21.66
